createdAt,value
2023-03-31T00:02:13.465Z,93867.44
2023-03-31T00:04:46.393Z,93860.31
2023-03-31T00:07:14.824Z,93870.66
2023-03-31T00:09:46.379Z,93869.06
2023-03-31T00:12:14.897Z,93858.91
2023-03-31T00:14:42.538Z,93847.16
2023-03-31T00:17:10.751Z,93854.31
2023-03-31T00:19:37.590Z,93855.91
2023-03-31T00:22:05.520Z,93850.16
2023-03-31T00:24:33.185Z,93838.81
2023-03-31T00:27:04.206Z,93829.69
2023-03-31T00:29:33.698Z,93835.66
2023-03-31T00:32:00.641Z,93830.94
2023-03-31T00:34:27.968Z,93825.38
2023-03-31T00:36:56.769Z,93831.53
2023-03-31T00:39:24.889Z,93833.31
2023-03-31T00:41:51.796Z,93829.00
2023-03-31T00:44:24.811Z,93825.03
2023-03-31T00:47:18.320Z,93818.69
2023-03-31T00:49:51.880Z,93815.31
2023-03-31T00:52:37.564Z,93819.28
2023-03-31T00:55:11.073Z,93810.13
2023-03-31T00:57:39.713Z,93814.91
2023-03-31T01:00:15.973Z,93813.72
2023-03-31T01:02:53.280Z,93821.44
2023-03-31T01:05:25.610Z,93813.13
2023-03-31T01:07:53.235Z,93812.72
2023-03-31T01:10:20.697Z,93811.94
2023-03-31T01:12:50.727Z,93805.38
2023-03-31T01:15:17.967Z,93800.81
2023-03-31T01:17:45.189Z,93791.69
2023-03-31T01:20:21.464Z,93787.91
2023-03-31T01:23:07.216Z,93787.50
2023-03-31T01:26:01.588Z,93774.19
2023-03-31T01:28:47.960Z,93777.38
2023-03-31T01:31:17.795Z,93770.78
2023-03-31T01:34:23.841Z,93761.44
2023-03-31T01:37:23.384Z,93757.09
2023-03-31T01:40:01.420Z,93742.38
2023-03-31T01:42:45.402Z,93731.28
2023-03-31T01:45:15.112Z,93716.56
2023-03-31T01:47:50.299Z,93717.00
2023-03-31T01:50:28.810Z,93719.03
2023-03-31T01:53:00.560Z,93718.03
2023-03-31T01:55:39.809Z,93715.66
2023-03-31T01:58:11.019Z,93716.28
2023-03-31T02:00:52.100Z,93712.09
2023-03-31T02:03:22.717Z,93713.28
2023-03-31T02:05:58.529Z,93700.81
2023-03-31T02:08:44.365Z,93698.03
2023-03-31T02:11:11.534Z,93703.59
2023-03-31T02:13:41.623Z,93687.91
2023-03-31T02:16:12.800Z,93684.75
2023-03-31T02:18:41.832Z,93691.09
2023-03-31T02:21:08.999Z,93682.78
2023-03-31T02:23:37.759Z,93689.69
2023-03-31T02:26:08.792Z,93689.94
2023-03-31T02:28:35.788Z,93683.44
2023-03-31T02:31:18.508Z,93691.75
2023-03-31T02:33:45.299Z,93688.34
2023-03-31T02:36:12.209Z,93692.50
2023-03-31T02:39:09.262Z,93679.00
2023-03-31T02:41:36.647Z,93667.94
2023-03-31T02:44:03.473Z,93674.66
2023-03-31T02:46:31.393Z,93672.91
2023-03-31T02:49:00.528Z,93661.22
2023-03-31T02:51:33.513Z,93670.94
2023-03-31T02:54:06.832Z,93668.34
2023-03-31T02:57:07.779Z,93669.00
2023-03-31T02:59:37.074Z,93669.59
2023-03-31T03:02:26.240Z,93669.16
2023-03-31T03:05:34.870Z,93660.25
2023-03-31T03:08:17.934Z,93652.94
2023-03-31T03:10:50.479Z,93657.28
2023-03-31T03:13:43.582Z,93658.88
2023-03-31T03:16:29.087Z,93654.09
2023-03-31T03:19:00.832Z,93660.66
2023-03-31T03:21:28.478Z,93642.81
2023-03-31T03:23:55.444Z,93651.38
2023-03-31T03:26:23.986Z,93648.59
2023-03-31T03:28:51.551Z,93646.41
2023-03-31T03:31:18.713Z,93646.63
2023-03-31T03:33:45.661Z,93637.91
2023-03-31T03:36:12.598Z,93638.09
2023-03-31T03:38:39.420Z,93636.09
2023-03-31T03:41:06.559Z,93635.50
2023-03-31T03:43:33.334Z,93630.97
2023-03-31T03:46:00.142Z,93641.06
2023-03-31T03:48:26.927Z,93638.28
2023-03-31T03:50:54.442Z,93634.31
2023-03-31T03:53:21.145Z,93630.38
2023-03-31T03:55:50.755Z,93629.75
2023-03-31T03:58:19.752Z,93629.41
2023-03-31T04:00:46.697Z,93629.22
2023-03-31T04:03:14.094Z,93624.47
2023-03-31T04:05:40.860Z,93619.09
2023-03-31T04:08:08.945Z,93611.75
2023-03-31T04:10:36.443Z,93617.72
2023-03-31T04:13:03.282Z,93620.28
2023-03-31T04:15:29.957Z,93609.00
2023-03-31T04:17:58.455Z,93612.16
2023-03-31T04:20:28.041Z,93604.03
2023-03-31T04:22:54.872Z,93605.03
2023-03-31T04:25:22.840Z,93605.81
2023-03-31T04:27:56.028Z,93586.41
2023-03-31T04:30:31.189Z,93579.25
2023-03-31T04:33:00.356Z,93583.63
2023-03-31T04:35:42.970Z,93585.63
2023-03-31T04:38:10.087Z,93580.66
2023-03-31T04:40:36.899Z,93576.69
2023-03-31T04:43:03.567Z,93565.81
2023-03-31T04:45:30.531Z,93563.84
2023-03-31T04:47:57.353Z,93560.88
2023-03-31T04:50:24.106Z,93559.84
2023-03-31T04:52:50.903Z,93561.03
2023-03-31T04:55:17.659Z,93543.06
2023-03-31T04:57:44.440Z,93555.13
2023-03-31T05:00:11.789Z,93550.38
2023-03-31T05:02:38.576Z,93549.59
2023-03-31T05:05:06.253Z,93551.56
2023-03-31T05:07:32.945Z,93547.41
2023-03-31T05:09:59.776Z,93548.03
2023-03-31T05:12:26.532Z,93550.38
2023-03-31T05:14:53.272Z,93542.47
2023-03-31T05:17:20.047Z,93546.03
2023-03-31T05:19:46.828Z,93546.03
2023-03-31T05:22:13.702Z,93539.47
2023-03-31T05:24:40.772Z,93532.16
2023-03-31T05:27:07.520Z,93532.56
2023-03-31T05:29:34.418Z,93527.16
2023-03-31T05:32:01.988Z,93508.13
2023-03-31T05:34:28.992Z,93494.91
2023-03-31T05:36:56.018Z,93503.97
2023-03-31T05:39:22.861Z,93491.34
2023-03-31T05:41:49.610Z,93480.44
2023-03-31T05:44:16.496Z,93478.97
2023-03-31T05:46:43.254Z,93469.88
2023-03-31T05:49:11.526Z,93479.16
2023-03-31T05:51:38.292Z,93481.34
2023-03-31T05:54:06.439Z,93476.38
2023-03-31T05:56:33.319Z,93488.09
2023-03-31T05:59:01.677Z,93479.34
2023-03-31T06:01:30.178Z,93490.06
2023-03-31T06:03:57.563Z,93491.66
2023-03-31T06:06:25.656Z,93490.06
2023-03-31T06:08:52.521Z,93484.34
2023-03-31T06:11:21.107Z,93479.00
2023-03-31T06:13:48.619Z,93477.38
2023-03-31T06:16:17.457Z,93466.63
2023-03-31T06:18:45.122Z,93452.31
2023-03-31T06:21:14.669Z,93447.63
2023-03-31T06:23:41.782Z,93442.09
2023-03-31T06:26:08.949Z,93434.56
2023-03-31T06:28:36.702Z,93417.72
2023-03-31T06:31:12.826Z,93405.53
2023-03-31T06:33:41.308Z,93404.84
2023-03-31T06:36:09.346Z,93396.50
2023-03-31T06:38:38.436Z,93382.38
2023-03-31T06:41:06.906Z,93389.44
2023-03-31T06:43:33.982Z,93385.16
2023-03-31T06:46:01.456Z,93376.41
2023-03-31T06:48:28.510Z,93377.75
2023-03-31T06:50:55.946Z,93365.75
2023-03-31T06:53:22.711Z,93356.53
2023-03-31T06:55:49.412Z,93364.44
2023-03-31T06:58:16.166Z,93363.78
2023-03-31T07:00:43.031Z,93362.38
2023-03-31T07:03:09.860Z,93370.88
2023-03-31T07:05:36.770Z,93356.56
2023-03-31T07:08:03.621Z,93356.97
2023-03-31T07:10:31.916Z,93358.75
2023-03-31T07:12:58.945Z,93359.91
2023-03-31T07:15:26.385Z,93359.38
2023-03-31T07:17:54.162Z,93352.19
2023-03-31T07:20:21.180Z,93348.06
2023-03-31T07:22:49.516Z,93339.81
2023-03-31T07:25:17.455Z,93346.63
2023-03-31T07:27:44.603Z,93343.28
2023-03-31T07:30:20.936Z,93346.53
2023-03-31T07:32:49.647Z,93351.63
2023-03-31T07:35:17.444Z,93354.38
2023-03-31T07:37:46.031Z,93361.78
2023-03-31T07:40:18.805Z,93351.88
2023-03-31T07:42:49.113Z,93349.69
2023-03-31T07:45:16.855Z,93347.63
2023-03-31T07:47:46.519Z,93336.63
2023-03-31T07:50:15.108Z,93326.38
2023-03-31T07:52:44.122Z,93318.59
2023-03-31T07:55:12.536Z,93313.50
2023-03-31T07:57:40.534Z,93307.94
2023-03-31T08:00:09.667Z,93323.72
2023-03-31T08:02:36.644Z,93331.72
2023-03-31T08:05:04.073Z,93325.78
2023-03-31T08:07:34.490Z,93313.56
2023-03-31T08:10:01.516Z,93303.88
2023-03-31T08:12:28.188Z,93285.19
2023-03-31T08:14:54.924Z,93295.28
2023-03-31T08:17:21.621Z,93301.03
2023-03-31T08:19:48.403Z,93288.28
2023-03-31T08:22:15.240Z,93285.47
2023-03-31T08:24:41.984Z,93276.28
2023-03-31T08:27:11.847Z,93277.19
2023-03-31T08:29:39.195Z,93263.94
2023-03-31T08:32:07.310Z,93255.97
2023-03-31T08:34:34.381Z,93251.66
2023-03-31T08:37:01.096Z,93252.94
2023-03-31T08:39:27.860Z,93262.78
2023-03-31T08:42:10.358Z,93269.97
2023-03-31T08:44:55.802Z,93275.75
2023-03-31T08:47:23.572Z,93251.97
2023-03-31T08:49:52.876Z,93245.28
2023-03-31T08:52:27.287Z,93244.22
2023-03-31T08:54:57.775Z,93245.88
2023-03-31T08:57:27.387Z,93248.25
2023-03-31T08:59:58.418Z,93258.16
2023-03-31T09:02:48.958Z,93248.81
2023-03-31T09:05:39.226Z,93249.81
2023-03-31T09:08:35.808Z,93234.03
2023-03-31T09:11:13.959Z,93238.66
2023-03-31T09:13:45.185Z,93238.75
2023-03-31T09:16:41.539Z,93235.16
2023-03-31T09:19:20.313Z,93222.84
2023-03-31T09:21:51.788Z,93196.38
2023-03-31T09:24:24.162Z,93211.53
2023-03-31T09:27:08.787Z,93200.19
2023-03-31T09:29:42.934Z,93186.03
2023-03-31T09:32:30.798Z,93188.44
2023-03-31T09:35:13.346Z,93189.59
2023-03-31T09:37:40.109Z,93200.66
2023-03-31T09:40:11.768Z,93208.59
2023-03-31T09:42:38.844Z,93205.91
2023-03-31T09:45:06.187Z,93201.94
2023-03-31T09:47:40.011Z,93210.81
2023-03-31T09:50:08.505Z,93203.50
2023-03-31T09:52:42.341Z,93207.63
2023-03-31T09:55:49.494Z,93206.69
2023-03-31T09:58:17.348Z,93187.22
2023-03-31T10:00:59.739Z,93165.31
2023-03-31T10:03:29.574Z,93166.13
2023-03-31T10:05:59.033Z,93175.00
2023-03-31T10:08:39.863Z,93160.41
2023-03-31T10:11:07.140Z,93147.03
2023-03-31T10:13:47.551Z,93152.84
2023-03-31T10:16:26.154Z,93152.63
2023-03-31T10:18:52.991Z,93140.91
2023-03-31T10:21:28.029Z,93137.31
2023-03-31T10:23:55.293Z,93140.97
2023-03-31T10:26:24.552Z,93142.53
2023-03-31T10:28:52.905Z,93144.75
2023-03-31T10:31:20.414Z,93132.03
2023-03-31T10:33:49.322Z,93124.00
2023-03-31T10:36:29.216Z,93117.19
2023-03-31T10:38:56.481Z,93123.97
2023-03-31T10:41:26.351Z,93124.78
2023-03-31T10:43:55.137Z,93124.25
2023-03-31T10:46:49.651Z,93127.34
2023-03-31T10:49:25.035Z,93124.78
2023-03-31T10:51:59.316Z,93129.91
2023-03-31T10:54:26.846Z,93125.97
2023-03-31T10:56:58.632Z,93109.06
2023-03-31T10:59:53.942Z,93112.72
2023-03-31T11:02:32.857Z,93088.75
2023-03-31T11:05:13.601Z,93094.75
2023-03-31T11:08:11.724Z,93103.88
2023-03-31T11:11:06.886Z,93104.13
2023-03-31T11:13:41.712Z,93087.72
2023-03-31T11:16:27.355Z,93085.09
2023-03-31T11:19:09.370Z,93082.47
2023-03-31T11:21:47.383Z,93085.34
2023-03-31T11:24:32.933Z,93075.69
2023-03-31T11:27:22.183Z,93073.59
2023-03-31T11:30:27.713Z,93066.50
2023-03-31T11:33:25.633Z,93061.53
2023-03-31T11:35:54.591Z,93046.94
2023-03-31T11:38:47.783Z,93048.97
2023-03-31T11:41:21.757Z,93034.88
2023-03-31T11:43:51.363Z,93051.31
2023-03-31T11:46:41.396Z,93048.94
2023-03-31T11:49:30.389Z,93029.63
2023-03-31T11:52:13.710Z,93025.63
2023-03-31T11:54:52.239Z,93026.44
2023-03-31T11:57:29.778Z,93011.81
2023-03-31T12:00:16.651Z,93004.03
2023-03-31T12:03:05.137Z,93003.00
2023-03-31T12:05:33.977Z,92996.22
2023-03-31T12:08:23.535Z,92987.06
2023-03-31T12:11:02.172Z,92988.06
2023-03-31T12:13:56.368Z,92978.94
2023-03-31T12:16:28.635Z,92967.94
2023-03-31T12:19:02.583Z,92960.41
2023-03-31T12:21:29.975Z,92957.28
2023-03-31T12:23:56.795Z,92958.06
2023-03-31T12:26:38.774Z,92950.28
2023-03-31T12:29:22.015Z,92940.66
2023-03-31T12:31:49.779Z,92933.69
2023-03-31T12:34:18.632Z,92930.09
2023-03-31T12:37:04.605Z,92911.63
2023-03-31T12:39:41.968Z,92895.50
2023-03-31T12:42:14.748Z,92883.88
2023-03-31T12:44:47.387Z,92889.34
2023-03-31T12:47:24.586Z,92893.22
2023-03-31T12:50:21.046Z,92898.47
2023-03-31T12:53:06.179Z,92897.41
2023-03-31T12:55:47.815Z,92893.50
2023-03-31T12:58:32.647Z,92896.63
2023-03-31T13:01:21.831Z,92896.34
2023-03-31T13:04:11.462Z,92873.44
2023-03-31T13:06:38.255Z,92883.59
2023-03-31T13:09:13.926Z,92869.81
2023-03-31T13:11:44.766Z,92872.38
2023-03-31T13:14:22.511Z,92860.38
2023-03-31T13:19:41.971Z,92862.94
2023-03-31T13:22:29.169Z,92866.06
2023-03-31T13:25:32.814Z,92864.50
2023-03-31T13:28:29.013Z,92858.25
2023-03-31T13:31:13.834Z,92849.13
2023-03-31T13:33:44.697Z,92850.69
2023-03-31T13:36:26.860Z,92847.81
2023-03-31T13:39:17.874Z,92854.84
2023-03-31T13:41:53.563Z,92859.47
2023-03-31T13:44:38.871Z,92858.66
2023-03-31T13:47:42.689Z,92846.94
2023-03-31T13:50:09.381Z,92842.47
2023-03-31T13:52:56.295Z,92847.41
2023-03-31T13:55:59.181Z,92845.81
2023-03-31T13:58:35.257Z,92846.03
2023-03-31T14:01:26.995Z,92837.66
2023-03-31T14:04:11.912Z,92826.41
2023-03-31T14:06:44.441Z,92830.78
2023-03-31T14:09:16.990Z,92838.03
2023-03-31T14:11:43.733Z,92831.28
2023-03-31T14:14:14.914Z,92822.88
2023-03-31T14:16:56.421Z,92823.34
2023-03-31T14:19:29.192Z,92827.97
2023-03-31T14:22:02.363Z,92836.72
2023-03-31T14:24:38.091Z,92845.13
2023-03-31T14:27:25.657Z,92863.47
2023-03-31T14:30:13.848Z,92886.06
2023-03-31T14:33:07.076Z,92899.50
2023-03-31T14:35:43.167Z,92913.50
2023-03-31T14:38:23.085Z,92935.25
2023-03-31T14:40:57.849Z,92950.03
2023-03-31T14:43:28.147Z,92975.03
2023-03-31T14:46:03.305Z,92993.16
2023-03-31T14:48:33.621Z,92996.47
2023-03-31T14:51:02.818Z,92998.59
2023-03-31T14:53:29.644Z,92988.38
2023-03-31T14:56:11.876Z,92998.69
2023-03-31T14:58:49.832Z,93000.97
2023-03-31T15:01:19.724Z,93002.47
2023-03-31T15:03:47.124Z,93006.16
2023-03-31T15:06:14.659Z,92986.78
2023-03-31T15:08:42.219Z,92966.97
2023-03-31T15:11:13.482Z,92970.47
2023-03-31T15:13:53.046Z,92981.13
2023-03-31T15:16:45.287Z,92976.09
2023-03-31T15:19:33.633Z,92980.66
2023-03-31T15:22:04.840Z,92983.59
2023-03-31T15:24:32.205Z,92991.06
2023-03-31T15:26:58.847Z,92983.53
2023-03-31T15:29:43.126Z,92979.00
2023-03-31T15:32:16.170Z,92984.16
2023-03-31T15:34:43.580Z,92979.53
2023-03-31T15:37:10.627Z,92971.47
2023-03-31T15:39:38.127Z,92972.94
2023-03-31T15:42:06.529Z,92969.66
2023-03-31T15:44:57.686Z,92968.00
2023-03-31T15:47:29.499Z,92967.72
2023-03-31T15:50:13.416Z,92965.59
2023-03-31T15:52:48.612Z,92973.81
2023-03-31T15:58:16.889Z,92971.31
2023-03-31T16:00:52.517Z,92973.66
2023-03-31T16:03:24.954Z,92989.41
2023-03-31T16:05:59.555Z,92999.91
2023-03-31T16:08:42.897Z,93021.44
2023-03-31T16:11:28.612Z,93036.19
2023-03-31T16:13:57.576Z,93040.34
2023-03-31T16:16:26.173Z,93042.72
2023-03-31T16:19:04.283Z,93046.63
2023-03-31T16:21:39.395Z,93034.97
2023-03-31T16:24:06.704Z,93035.19
2023-03-31T16:26:33.837Z,93031.25
2023-03-31T16:29:01.203Z,93008.94
2023-03-31T16:31:40.436Z,93005.56
2023-03-31T16:34:09.755Z,92997.03
2023-03-31T16:36:36.686Z,92998.63
2023-03-31T16:39:05.401Z,93008.28
2023-03-31T16:41:33.135Z,92999.19
2023-03-31T16:44:00.146Z,93009.16
2023-03-31T16:46:26.925Z,93003.78
2023-03-31T16:48:54.308Z,92997.84
2023-03-31T16:51:21.479Z,92978.00
2023-03-31T16:53:48.457Z,92986.41
2023-03-31T16:56:15.810Z,92966.66
2023-03-31T16:58:42.899Z,92970.25
2023-03-31T17:01:11.002Z,92980.00
2023-03-31T17:03:40.097Z,92974.41
2023-03-31T17:06:11.406Z,92980.69
2023-03-31T17:08:39.890Z,92975.31
2023-03-31T17:11:12.695Z,92984.06
2023-03-31T17:13:40.307Z,92972.94
2023-03-31T17:16:17.570Z,92973.28
2023-03-31T17:18:49.297Z,92974.97
2023-03-31T17:21:19.406Z,92966.56
2023-03-31T17:23:46.691Z,92974.41
2023-03-31T17:26:14.205Z,92977.78
2023-03-31T17:28:41.676Z,92967.25
2023-03-31T17:31:12.815Z,92959.59
2023-03-31T17:33:40.438Z,92961.28
2023-03-31T17:36:07.598Z,92960.16
2023-03-31T17:38:34.857Z,92958.72
2023-03-31T17:41:09.990Z,92940.84
2023-03-31T17:43:38.372Z,92934.34
2023-03-31T17:46:09.265Z,92941.75
2023-03-31T17:48:39.290Z,92934.94
2023-03-31T17:51:07.834Z,92938.38
2023-03-31T17:53:35.710Z,92934.16
2023-03-31T17:56:03.941Z,92942.31
2023-03-31T17:58:31.247Z,92944.47
2023-03-31T18:00:58.604Z,92934.81
2023-03-31T18:03:28.368Z,92956.03
2023-03-31T18:05:55.106Z,92955.34
2023-03-31T18:08:22.009Z,92943.56
2023-03-31T18:10:49.327Z,92940.09
2023-03-31T18:13:16.781Z,92939.66
2023-03-31T18:15:49.214Z,92944.13
2023-03-31T18:18:16.256Z,92946.81
2023-03-31T18:20:43.086Z,92953.22
2023-03-31T18:23:09.973Z,92950.16
2023-03-31T18:25:36.882Z,92951.19
2023-03-31T18:28:03.983Z,92961.38
2023-03-31T18:30:31.101Z,92961.94
2023-03-31T18:32:58.566Z,92968.09
2023-03-31T18:35:25.920Z,92954.75
2023-03-31T18:37:52.777Z,92951.19
2023-03-31T18:40:19.468Z,92958.91
2023-03-31T18:42:46.530Z,92955.69
2023-03-31T18:45:13.231Z,92960.41
2023-03-31T18:47:40.244Z,92962.06
2023-03-31T18:50:07.601Z,92957.91
2023-03-31T18:52:36.095Z,92951.75
2023-03-31T18:55:03.622Z,92959.38
2023-03-31T18:57:30.810Z,92954.09
2023-03-31T18:59:57.504Z,92957.81
2023-03-31T19:02:24.337Z,92956.34
2023-03-31T19:04:51.279Z,92956.25
2023-03-31T19:07:18.101Z,92962.06
2023-03-31T19:09:44.875Z,92961.63
2023-03-31T19:12:12.014Z,92964.41
2023-03-31T19:14:41.055Z,92957.03
2023-03-31T19:17:07.850Z,92960.84
2023-03-31T19:19:35.370Z,92951.09
2023-03-31T19:22:02.134Z,92950.63
2023-03-31T19:24:29.020Z,92943.34
2023-03-31T19:26:57.058Z,92945.69
2023-03-31T19:29:24.063Z,92938.84
2023-03-31T19:31:51.950Z,92927.31
2023-03-31T19:34:18.722Z,92918.56
2023-03-31T19:36:46.360Z,92924.38
2023-03-31T19:39:12.968Z,92927.50
2023-03-31T19:41:39.660Z,92914.50
2023-03-31T19:44:06.421Z,92911.81
2023-03-31T19:46:33.243Z,92908.47
2023-03-31T19:48:59.987Z,92902.16
2023-03-31T19:51:27.677Z,92898.13
2023-03-31T19:53:54.653Z,92895.91
2023-03-31T19:56:25.186Z,92893.97
2023-03-31T19:58:52.704Z,92884.13
2023-03-31T20:01:27.421Z,92896.69
2023-03-31T20:03:54.788Z,92889.84
2023-03-31T20:06:26.778Z,92876.84
2023-03-31T20:08:55.597Z,92880.44
2023-03-31T20:11:22.459Z,92882.00
2023-03-31T20:13:49.329Z,92886.47
2023-03-31T20:16:19.313Z,92887.16
2023-03-31T20:19:01.380Z,92892.97
2023-03-31T20:21:29.508Z,92899.25
2023-03-31T20:23:57.311Z,92897.00
2023-03-31T20:26:26.782Z,92899.69
2023-03-31T20:28:55.079Z,92898.59
2023-03-31T20:31:23.946Z,92899.81
2023-03-31T20:33:52.641Z,92892.19
2023-03-31T20:36:21.799Z,92893.19
2023-03-31T20:38:53.307Z,92898.78
2023-03-31T20:41:22.632Z,92892.84
2023-03-31T20:43:50.665Z,92883.66
2023-03-31T20:46:17.694Z,92876.50
2023-03-31T20:48:47.800Z,92870.84
2023-03-31T20:51:16.673Z,92869.31
2023-03-31T20:53:45.446Z,92866.63
2023-03-31T20:56:14.767Z,92861.66
2023-03-31T20:58:43.975Z,92857.59
2023-03-31T21:01:12.187Z,92855.16
2023-03-31T21:03:39.205Z,92856.50
2023-03-31T21:06:11.432Z,92853.13
2023-03-31T21:08:39.080Z,92848.28
2023-03-31T21:11:06.523Z,92838.88
2023-03-31T21:13:33.768Z,92847.72
2023-03-31T21:16:01.199Z,92845.63
2023-03-31T21:18:29.427Z,92847.19
2023-03-31T21:21:01.082Z,92850.06
2023-03-31T21:23:29.503Z,92847.38
2023-03-31T21:25:58.190Z,92846.94
2023-03-31T21:28:26.605Z,92836.41
2023-03-31T21:31:07.413Z,92842.66
2023-03-31T21:33:38.528Z,92833.25
2023-03-31T21:36:06.797Z,92843.00
2023-03-31T21:38:33.734Z,92838.41
2023-03-31T21:41:08.441Z,92848.72
2023-03-31T21:43:35.458Z,92843.09
2023-03-31T21:46:02.691Z,92856.44
2023-03-31T21:48:29.715Z,92861.91
2023-03-31T21:51:00.665Z,92847.22
2023-03-31T21:53:29.177Z,92852.16
2023-03-31T21:55:57.442Z,92858.19
2023-03-31T21:58:26.772Z,92853.16
2023-03-31T22:00:56.146Z,92852.03
2023-03-31T22:03:27.489Z,92856.31
2023-03-31T22:05:58.991Z,92855.53
2023-03-31T22:08:27.287Z,92858.81
2023-03-31T22:10:54.795Z,92847.94
2023-03-31T22:13:22.495Z,92846.91
2023-03-31T22:15:49.351Z,92845.56
2023-03-31T22:18:17.243Z,92842.66
2023-03-31T22:20:44.141Z,92842.00
2023-03-31T22:23:10.919Z,92843.72
2023-03-31T22:25:37.857Z,92834.47
2023-03-31T22:28:07.109Z,92836.91
2023-03-31T22:30:34.211Z,92830.56
2023-03-31T22:33:01.168Z,92819.81
2023-03-31T22:35:28.453Z,92822.47
2023-03-31T22:37:55.118Z,92820.69
2023-03-31T22:40:21.990Z,92824.19
2023-03-31T22:42:48.606Z,92824.25
2023-03-31T22:45:15.843Z,92832.34
2023-03-31T22:47:42.639Z,92835.25
2023-03-31T22:50:10.635Z,92838.97
2023-03-31T22:52:37.645Z,92840.84
2023-03-31T22:55:05.546Z,92833.44
2023-03-31T22:57:32.502Z,92842.88
2023-03-31T22:59:59.321Z,92846.78
2023-03-31T23:02:26.087Z,92857.22
2023-03-31T23:04:52.859Z,92862.03
2023-03-31T23:07:21.931Z,92858.00
2023-03-31T23:09:49.100Z,92864.75
2023-03-31T23:12:16.116Z,92870.09
2023-03-31T23:14:42.969Z,92864.06
2023-03-31T23:17:09.718Z,92869.31
2023-03-31T23:19:37.873Z,92862.72
2023-03-31T23:22:04.860Z,92863.50
2023-03-31T23:24:31.707Z,92868.41
2023-03-31T23:26:58.480Z,92862.16
2023-03-31T23:29:25.897Z,92858.19
2023-03-31T23:31:52.670Z,92861.47
2023-03-31T23:34:19.695Z,92875.56
2023-03-31T23:36:46.720Z,92874.56
2023-03-31T23:39:13.557Z,92877.84
2023-03-31T23:41:40.296Z,92879.19
2023-03-31T23:44:07.567Z,92872.00
2023-03-31T23:46:34.285Z,92872.69
2023-03-31T23:49:02.882Z,92873.91
2023-03-31T23:51:29.765Z,92871.13
2023-03-31T23:53:56.576Z,92862.59
2023-03-31T23:56:23.397Z,92860.59
2023-03-31T23:58:50.131Z,92846.00
